Castries, Saint Lucia
Current Conditions -  °F | °C
As of 1:00 PM on Saturday 25 Oct 2014 (Local Time) from TLPC Reporting Station
Broken Clouds Broken Clouds  
Wind Chill: 84°   Ceiling: 29000
Heat Index: 91°   Visibility: 6mi
Dew Point: 73°   Wind: 8mph
Humidity: 70%   Direction: 90°E
Pressure: 29.88"   Gusts: NA
Location:  14.03°N, 60.98°W
Report Text: TLPC 251700Z 09007KT 9999 FEW024 BKN290 29/23 Q1012 NOSIG
Loading
Personal Weather Stations






























Interactive Weather Map
Tropical Storm Tracking
New forecast layout! Learn more

10-Day Weather Forecast

Advertisements
Track Severe Weather on mobile